Ashley, Ohio
Current Conditions -  °F | °C
As of 8:16 AM on Thursday 23 Oct 2014 (Local Time) from KDLZ Reporting Station
Haze Haze  
Wind Chill: 36°   Ceiling: Unl
Heat Index: 36°   Visibility: 2mi
Dew Point: 36°   Wind: 3mph
Humidity: 100%   Direction: 320°NW
Pressure: 30.24"   Gusts: NA
Location:  40.41°N, 82.96°W
Report Text: KDLZ 231216Z AUTO 32003KT 2SM BR CLR 02/02 A3024 RMK AO2
Loading
Personal Weather Stations






























Interactive Weather Map
Tropical Storm Tracking
New forecast layout! Learn more

10-Day Weather Forecast

Advertisements
Track Severe Weather on mobile